sensor_id;sensor_type;location;lat;lon;timestamp;temperature;humidity
770;DHT22;368;48.698;9.116;2024-03-02T00:01:10;4.80;99.90
770;DHT22;368;48.698;9.116;2024-03-02T00:03:37;4.40;99.90
770;DHT22;368;48.698;9.116;2024-03-02T00:06:04;4.40;99.90
770;DHT22;368;48.698;9.116;2024-03-02T00:08:31;4.30;99.90
770;DHT22;368;48.698;9.116;2024-03-02T00:10:59;4.40;99.90
770;DHT22;368;48.698;9.116;2024-03-02T00:13:29;4.40;99.90
770;DHT22;368;48.698;9.116;2024-03-02T00:15:58;4.50;99.90
770;DHT22;368;48.698;9.116;2024-03-02T00:18:26;4.60;99.90
770;DHT22;368;48.698;9.116;2024-03-02T00:20:54;4.60;99.90
770;DHT22;368;48.698;9.116;2024-03-02T00:23:23;4.60;99.90
770;DHT22;368;48.698;9.116;2024-03-02T00:25:51;4.60;99.90
770;DHT22;368;48.698;9.116;2024-03-02T00:28:23;4.70;99.90
770;DHT22;368;48.698;9.116;2024-03-02T00:30:57;4.80;99.90
770;DHT22;368;48.698;9.116;2024-03-02T00:33:27;4.80;99.90
770;DHT22;368;48.698;9.116;2024-03-02T00:35:54;4.80;99.90
770;DHT22;368;48.698;9.116;2024-03-02T00:38:22;5.10;99.90
770;DHT22;368;48.698;9.116;2024-03-02T00:40:49;4.80;99.90
770;DHT22;368;48.698;9.116;2024-03-02T00:43:45;4.50;99.90
770;DHT22;368;48.698;9.116;2024-03-02T00:46:16;4.50;99.90
770;DHT22;368;48.698;9.116;2024-03-02T00:48:51;4.70;99.90
770;DHT22;368;48.698;9.116;2024-03-02T00:51:21;4.50;99.90
770;DHT22;368;48.698;9.116;2024-03-02T00:53:48;4.70;99.90
770;DHT22;368;48.698;9.116;2024-03-02T00:56:16;4.60;99.90
770;DHT22;368;48.698;9.116;2024-03-02T00:58:43;4.80;99.90
770;DHT22;368;48.698;9.116;2024-03-02T01:01:11;4.80;99.90
770;DHT22;368;48.698;9.116;2024-03-02T01:03:38;5.20;99.90
770;DHT22;368;48.698;9.116;2024-03-02T01:06:05;5.00;99.90
770;DHT22;368;48.698;9.116;2024-03-02T01:08:33;4.70;99.90
770;DHT22;368;48.698;9.116;2024-03-02T01:11:00;4.60;99.90
770;DHT22;368;48.698;9.116;2024-03-02T01:13:27;4.60;99.90
770;DHT22;368;48.698;9.116;2024-03-02T01:15:54;4.70;99.90
770;DHT22;368;48.698;9.116;2024-03-02T01:18:22;4.70;99.90
770;DHT22;368;48.698;9.116;2024-03-02T01:20:49;4.50;99.90
770;DHT22;368;48.698;9.116;2024-03-02T01:23:17;4.50;99.90
770;DHT22;368;48.698;9.116;2024-03-02T01:25:45;4.30;99.90
770;DHT22;368;48.698;9.116;2024-03-02T01:28:11;4.20;99.90
770;DHT22;368;48.698;9.116;2024-03-02T01:30:38;4.00;99.90
770;DHT22;368;48.698;9.116;2024-03-02T01:33:05;4.10;99.90
770;DHT22;368;48.698;9.116;2024-03-02T01:35:33;3.90;99.90
770;DHT22;368;48.698;9.116;2024-03-02T01:38:01;4.00;99.90
770;DHT22;368;48.698;9.116;2024-03-02T01:40:28;4.00;99.90
770;DHT22;368;48.698;9.116;2024-03-02T01:42:55;4.00;99.90
770;DHT22;368;48.698;9.116;2024-03-02T01:45:23;4.00;99.90
770;DHT22;368;48.698;9.116;2024-03-02T01:47:50;4.00;99.90
770;DHT22;368;48.698;9.116;2024-03-02T01:50:25;3.70;99.90
770;DHT22;368;48.698;9.116;2024-03-02T01:52:53;3.50;99.90
770;DHT22;368;48.698;9.116;2024-03-02T01:55:20;3.40;99.90
770;DHT22;368;48.698;9.116;2024-03-02T01:57:47;3.30;99.90
770;DHT22;368;48.698;9.116;2024-03-02T02:00:15;3.30;99.90
770;DHT22;368;48.698;9.116;2024-03-02T02:02:42;3.40;99.90
770;DHT22;368;48.698;9.116;2024-03-02T02:05:09;3.10;99.90
770;DHT22;368;48.698;9.116;2024-03-02T02:07:35;3.30;99.90
770;DHT22;368;48.698;9.116;2024-03-02T02:10:07;3.00;99.90
770;DHT22;368;48.698;9.116;2024-03-02T02:12:33;3.10;99.90
770;DHT22;368;48.698;9.116;2024-03-02T02:15:01;2.90;99.90
770;DHT22;368;48.698;9.116;2024-03-02T02:17:28;3.50;99.90
770;DHT22;368;48.698;9.116;2024-03-02T02:19:55;3.60;99.90
770;DHT22;368;48.698;9.116;2024-03-02T02:22:23;3.30;99.90
770;DHT22;368;48.698;9.116;2024-03-02T02:24:49;3.40;99.90
770;DHT22;368;48.698;9.116;2024-03-02T02:27:16;3.30;99.90
770;DHT22;368;48.698;9.116;2024-03-02T02:29:43;3.00;99.90
770;DHT22;368;48.698;9.116;2024-03-02T02:32:10;3.10;99.90
770;DHT22;368;48.698;9.116;2024-03-02T02:34:36;3.10;99.90
770;DHT22;368;48.698;9.116;2024-03-02T02:37:03;3.20;99.90
770;DHT22;368;48.698;9.116;2024-03-02T02:39:32;3.20;99.90
770;DHT22;368;48.698;9.116;2024-03-02T02:41:58;2.90;99.90
770;DHT22;368;48.698;9.116;2024-03-02T02:44:26;2.90;99.90
770;DHT22;368;48.698;9.116;2024-03-02T02:46:53;3.00;99.90
770;DHT22;368;48.698;9.116;2024-03-02T02:49:20;2.70;99.90
770;DHT22;368;48.698;9.116;2024-03-02T02:51:47;2.90;99.90
770;DHT22;368;48.698;9.116;2024-03-02T02:54:14;2.80;99.90
770;DHT22;368;48.698;9.116;2024-03-02T02:56:42;2.80;99.90
770;DHT22;368;48.698;9.116;2024-03-02T02:59:09;2.40;99.90
770;DHT22;368;48.698;9.116;2024-03-02T03:01:35;2.70;99.90
770;DHT22;368;48.698;9.116;2024-03-02T03:04:02;2.80;99.90
770;DHT22;368;48.698;9.116;2024-03-02T03:06:29;2.80;99.90
770;DHT22;368;48.698;9.116;2024-03-02T03:08:56;2.80;99.90
770;DHT22;368;48.698;9.116;2024-03-02T03:11:23;2.90;99.90
770;DHT22;368;48.698;9.116;2024-03-02T03:13:53;3.10;99.90
770;DHT22;368;48.698;9.116;2024-03-02T03:16:20;2.80;99.90
770;DHT22;368;48.698;9.116;2024-03-02T03:18:47;2.20;99.90
770;DHT22;368;48.698;9.116;2024-03-02T03:21:15;2.00;99.90
770;DHT22;368;48.698;9.116;2024-03-02T03:23:42;2.00;99.90
770;DHT22;368;48.698;9.116;2024-03-02T03:26:09;1.90;99.90
770;DHT22;368;48.698;9.116;2024-03-02T03:28:36;1.80;99.90
770;DHT22;368;48.698;9.116;2024-03-02T03:31:04;1.90;99.90
770;DHT22;368;48.698;9.116;2024-03-02T03:33:31;1.70;99.90
770;DHT22;368;48.698;9.116;2024-03-02T03:35:58;1.70;99.90
770;DHT22;368;48.698;9.116;2024-03-02T03:38:25;1.60;99.90
770;DHT22;368;48.698;9.116;2024-03-02T03:40:52;1.70;99.90
770;DHT22;368;48.698;9.116;2024-03-02T03:43:20;2.10;99.90
770;DHT22;368;48.698;9.116;2024-03-02T03:45:47;1.70;99.90
770;DHT22;368;48.698;9.116;2024-03-02T03:48:15;1.80;99.90
770;DHT22;368;48.698;9.116;2024-03-02T03:50:42;1.70;99.90
770;DHT22;368;48.698;9.116;2024-03-02T03:53:09;1.70;99.90
770;DHT22;368;48.698;9.116;2024-03-02T03:55:36;1.50;99.90
770;DHT22;368;48.698;9.116;2024-03-02T03:58:03;1.40;99.90
770;DHT22;368;48.698;9.116;2024-03-02T04:00:30;1.80;99.90
770;DHT22;368;48.698;9.116;2024-03-02T04:02:56;1.50;99.90
770;DHT22;368;48.698;9.116;2024-03-02T04:05:25;1.90;99.90
770;DHT22;368;48.698;9.116;2024-03-02T04:07:53;1.50;99.90
770;DHT22;368;48.698;9.116;2024-03-02T04:10:20;1.40;99.90
770;DHT22;368;48.698;9.116;2024-03-02T04:12:47;1.50;99.90
770;DHT22;368;48.698;9.116;2024-03-02T04:15:15;1.50;99.90
770;DHT22;368;48.698;9.116;2024-03-02T04:17:44;1.50;99.90
770;DHT22;368;48.698;9.116;2024-03-02T04:20:11;1.60;99.90
770;DHT22;368;48.698;9.116;2024-03-02T04:22:40;1.40;99.90
770;DHT22;368;48.698;9.116;2024-03-02T04:25:07;1.50;99.90
770;DHT22;368;48.698;9.116;2024-03-02T04:27:35;1.60;99.90
770;DHT22;368;48.698;9.116;2024-03-02T04:30:02;1.70;99.90
770;DHT22;368;48.698;9.116;2024-03-02T04:32:30;1.30;99.90
770;DHT22;368;48.698;9.116;2024-03-02T04:34:57;1.40;99.90
770;DHT22;368;48.698;9.116;2024-03-02T04:37:24;1.20;99.90
770;DHT22;368;48.698;9.116;2024-03-02T04:39:52;1.20;99.90
770;DHT22;368;48.698;9.116;2024-03-02T04:42:19;1.40;99.90
770;DHT22;368;48.698;9.116;2024-03-02T04:44:46;1.60;99.90
770;DHT22;368;48.698;9.116;2024-03-02T04:47:13;1.60;99.90
770;DHT22;368;48.698;9.116;2024-03-02T04:49:40;1.70;99.90
770;DHT22;368;48.698;9.116;2024-03-02T04:52:07;1.70;99.90
770;DHT22;368;48.698;9.116;2024-03-02T04:54:34;1.40;99.90
770;DHT22;368;48.698;9.116;2024-03-02T04:57:22;1.30;99.90
770;DHT22;368;48.698;9.116;2024-03-02T04:59:49;1.70;99.90
770;DHT22;368;48.698;9.116;2024-03-02T05:02:16;1.70;99.90
770;DHT22;368;48.698;9.116;2024-03-02T05:04:43;1.60;99.90
770;DHT22;368;48.698;9.116;2024-03-02T05:07:10;1.40;99.90
770;DHT22;368;48.698;9.116;2024-03-02T05:09:36;1.80;99.90
770;DHT22;368;48.698;9.116;2024-03-02T05:12:03;1.60;99.90
770;DHT22;368;48.698;9.116;2024-03-02T05:14:56;1.20;99.90
770;DHT22;368;48.698;9.116;2024-03-02T05:17:22;1.40;99.90
770;DHT22;368;48.698;9.116;2024-03-02T05:19:48;1.20;99.90
770;DHT22;368;48.698;9.116;2024-03-02T05:22:15;1.30;99.90
770;DHT22;368;48.698;9.116;2024-03-02T05:24:42;0.80;99.90
770;DHT22;368;48.698;9.116;2024-03-02T05:27:09;1.20;99.90
770;DHT22;368;48.698;9.116;2024-03-02T05:29:36;1.20;99.90
770;DHT22;368;48.698;9.116;2024-03-02T05:32:04;0.90;99.90
770;DHT22;368;48.698;9.116;2024-03-02T05:34:31;1.10;99.90
770;DHT22;368;48.698;9.116;2024-03-02T05:37:00;1.20;99.90
770;DHT22;368;48.698;9.116;2024-03-02T05:39:27;1.40;99.90
770;DHT22;368;48.698;9.116;2024-03-02T05:41:54;1.50;99.90
770;DHT22;368;48.698;9.116;2024-03-02T05:44:21;1.30;99.90
770;DHT22;368;48.698;9.116;2024-03-02T05:46:48;1.40;99.90
770;DHT22;368;48.698;9.116;2024-03-02T05:49:16;1.20;99.90
770;DHT22;368;48.698;9.116;2024-03-02T05:51:42;1.40;99.90
770;DHT22;368;48.698;9.116;2024-03-02T05:54:09;1.10;99.90
770;DHT22;368;48.698;9.116;2024-03-02T05:56:36;1.10;99.90
770;DHT22;368;48.698;9.116;2024-03-02T05:59:03;0.80;99.90
770;DHT22;368;48.698;9.116;2024-03-02T06:01:38;1.00;99.90
770;DHT22;368;48.698;9.116;2024-03-02T06:04:05;1.00;99.90
770;DHT22;368;48.698;9.116;2024-03-02T06:06:33;1.10;99.90
770;DHT22;368;48.698;9.116;2024-03-02T06:09:00;1.20;99.90
770;DHT22;368;48.698;9.116;2024-03-02T06:11:28;1.30;99.90
770;DHT22;368;48.698;9.116;2024-03-02T06:13:55;1.30;99.90
770;DHT22;368;48.698;9.116;2024-03-02T06:16:21;1.20;99.90
770;DHT22;368;48.698;9.116;2024-03-02T06:18:48;1.60;99.90
770;DHT22;368;48.698;9.116;2024-03-02T06:21:15;1.60;99.90
770;DHT22;368;48.698;9.116;2024-03-02T06:23:45;1.90;99.90
770;DHT22;368;48.698;9.116;2024-03-02T06:26:12;1.70;99.90
770;DHT22;368;48.698;9.116;2024-03-02T06:28:40;1.70;99.90
770;DHT22;368;48.698;9.116;2024-03-02T06:31:06;1.50;99.90
770;DHT22;368;48.698;9.116;2024-03-02T06:33:33;1.60;99.90
770;DHT22;368;48.698;9.116;2024-03-02T06:36:00;1.70;99.90
770;DHT22;368;48.698;9.116;2024-03-02T06:38:27;1.60;99.90
770;DHT22;368;48.698;9.116;2024-03-02T06:40:55;1.60;99.90
770;DHT22;368;48.698;9.116;2024-03-02T06:43:22;2.10;99.90
770;DHT22;368;48.698;9.116;2024-03-02T06:45:49;2.20;99.90
770;DHT22;368;48.698;9.116;2024-03-02T06:48:16;2.30;99.90
770;DHT22;368;48.698;9.116;2024-03-02T06:50:45;2.50;99.90
770;DHT22;368;48.698;9.116;2024-03-02T06:53:12;2.60;99.90
770;DHT22;368;48.698;9.116;2024-03-02T06:55:39;2.90;99.90
770;DHT22;368;48.698;9.116;2024-03-02T06:58:07;3.10;99.90
770;DHT22;368;48.698;9.116;2024-03-02T07:00:34;3.30;99.90
770;DHT22;368;48.698;9.116;2024-03-02T07:03:02;3.20;99.90
770;DHT22;368;48.698;9.116;2024-03-02T07:05:29;3.30;99.90
770;DHT22;368;48.698;9.116;2024-03-02T07:07:56;2.90;99.90
770;DHT22;368;48.698;9.116;2024-03-02T07:10:22;3.20;99.90
770;DHT22;368;48.698;9.116;2024-03-02T07:12:49;3.10;99.90
770;DHT22;368;48.698;9.116;2024-03-02T07:15:17;3.60;99.90
770;DHT22;368;48.698;9.116;2024-03-02T07:17:55;3.70;99.90
770;DHT22;368;48.698;9.116;2024-03-02T07:20:22;3.90;99.90
770;DHT22;368;48.698;9.116;2024-03-02T07:22:49;4.10;99.90
770;DHT22;368;48.698;9.116;2024-03-02T07:25:16;4.20;99.90
770;DHT22;368;48.698;9.116;2024-03-02T07:27:43;4.80;99.90
770;DHT22;368;48.698;9.116;2024-03-02T07:30:14;4.80;99.90
770;DHT22;368;48.698;9.116;2024-03-02T07:32:44;4.70;99.90
770;DHT22;368;48.698;9.116;2024-03-02T07:35:12;5.10;99.90
770;DHT22;368;48.698;9.116;2024-03-02T07:37:39;5.00;99.90
770;DHT22;368;48.698;9.116;2024-03-02T07:40:08;5.10;99.90
770;DHT22;368;48.698;9.116;2024-03-02T07:42:36;5.00;99.90
770;DHT22;368;48.698;9.116;2024-03-02T07:45:04;5.00;99.90
770;DHT22;368;48.698;9.116;2024-03-02T07:47:32;5.00;99.90
770;DHT22;368;48.698;9.116;2024-03-02T07:50:00;5.00;99.90
770;DHT22;368;48.698;9.116;2024-03-02T07:52:27;5.10;99.90
770;DHT22;368;48.698;9.116;2024-03-02T07:54:53;5.10;99.90
770;DHT22;368;48.698;9.116;2024-03-02T07:57:20;5.10;99.90
770;DHT22;368;48.698;9.116;2024-03-02T07:59:47;5.30;99.90
770;DHT22;368;48.698;9.116;2024-03-02T08:02:14;5.20;99.90
770;DHT22;368;48.698;9.116;2024-03-02T08:04:41;5.40;99.90
770;DHT22;368;48.698;9.116;2024-03-02T08:07:10;5.70;99.90
770;DHT22;368;48.698;9.116;2024-03-02T08:09:37;5.60;99.90
770;DHT22;368;48.698;9.116;2024-03-02T08:12:04;5.70;99.90
770;DHT22;368;48.698;9.116;2024-03-02T08:14:31;5.70;99.90
770;DHT22;368;48.698;9.116;2024-03-02T08:16:58;5.90;99.90
770;DHT22;368;48.698;9.116;2024-03-02T08:19:27;6.30;99.90
770;DHT22;368;48.698;9.116;2024-03-02T08:21:54;6.60;99.90
770;DHT22;368;48.698;9.116;2024-03-02T08:24:22;6.80;99.90
770;DHT22;368;48.698;9.116;2024-03-02T08:26:49;7.00;99.90
770;DHT22;368;48.698;9.116;2024-03-02T08:29:16;7.00;99.90
770;DHT22;368;48.698;9.116;2024-03-02T08:31:43;7.00;99.90
770;DHT22;368;48.698;9.116;2024-03-02T08:34:09;7.30;99.90
770;DHT22;368;48.698;9.116;2024-03-02T08:36:43;7.40;99.90
770;DHT22;368;48.698;9.116;2024-03-02T08:39:17;7.40;99.90
770;DHT22;368;48.698;9.116;2024-03-02T08:41:46;7.70;99.90
770;DHT22;368;48.698;9.116;2024-03-02T08:44:13;7.70;99.90
770;DHT22;368;48.698;9.116;2024-03-02T08:46:40;7.90;99.90
770;DHT22;368;48.698;9.116;2024-03-02T08:49:07;8.30;99.90
770;DHT22;368;48.698;9.116;2024-03-02T08:51:34;8.60;99.90
770;DHT22;368;48.698;9.116;2024-03-02T08:54:01;8.60;99.90
770;DHT22;368;48.698;9.116;2024-03-02T08:56:30;8.70;99.90
770;DHT22;368;48.698;9.116;2024-03-02T08:58:58;9.20;99.90
770;DHT22;368;48.698;9.116;2024-03-02T09:01:25;9.10;99.90
770;DHT22;368;48.698;9.116;2024-03-02T09:03:52;9.40;99.90
770;DHT22;368;48.698;9.116;2024-03-02T09:06:19;9.90;99.90
770;DHT22;368;48.698;9.116;2024-03-02T09:08:46;10.00;99.90
770;DHT22;368;48.698;9.116;2024-03-02T09:11:13;10.50;99.90
770;DHT22;368;48.698;9.116;2024-03-02T09:13:40;10.50;99.90
770;DHT22;368;48.698;9.116;2024-03-02T09:16:09;10.70;99.90
770;DHT22;368;48.698;9.116;2024-03-02T09:18:36;10.10;99.90
770;DHT22;368;48.698;9.116;2024-03-02T09:21:04;9.90;99.90
770;DHT22;368;48.698;9.116;2024-03-02T09:23:31;9.80;99.90
770;DHT22;368;48.698;9.116;2024-03-02T09:25:58;9.70;99.90
770;DHT22;368;48.698;9.116;2024-03-02T09:28:25;9.30;99.90
770;DHT22;368;48.698;9.116;2024-03-02T09:30:52;9.20;99.90
770;DHT22;368;48.698;9.116;2024-03-02T09:33:20;9.20;99.90
770;DHT22;368;48.698;9.116;2024-03-02T09:35:47;9.40;99.90
770;DHT22;368;48.698;9.116;2024-03-02T09:38:15;9.70;99.90
770;DHT22;368;48.698;9.116;2024-03-02T09:40:42;9.90;99.90
770;DHT22;368;48.698;9.116;2024-03-02T09:43:09;10.40;99.90
770;DHT22;368;48.698;9.116;2024-03-02T09:45:36;11.80;99.90
770;DHT22;368;48.698;9.116;2024-03-02T09:48:03;13.50;98.30
770;DHT22;368;48.698;9.116;2024-03-02T09:50:32;13.70;96.10
770;DHT22;368;48.698;9.116;2024-03-02T09:52:59;14.60;94.30
770;DHT22;368;48.698;9.116;2024-03-02T09:55:25;16.80;92.40
770;DHT22;368;48.698;9.116;2024-03-02T09:57:53;16.90;89.50
770;DHT22;368;48.698;9.116;2024-03-02T10:00:20;17.40;87.10
770;DHT22;368;48.698;9.116;2024-03-02T10:02:46;18.50;81.80
770;DHT22;368;48.698;9.116;2024-03-02T10:05:23;18.60;81.90
770;DHT22;368;48.698;9.116;2024-03-02T10:07:58;19.10;78.80
770;DHT22;368;48.698;9.116;2024-03-02T10:10:34;19.70;78.20
770;DHT22;368;48.698;9.116;2024-03-02T10:13:06;19.50;72.40
770;DHT22;368;48.698;9.116;2024-03-02T10:15:33;19.30;75.20
770;DHT22;368;48.698;9.116;2024-03-02T10:18:06;19.90;73.20
770;DHT22;368;48.698;9.116;2024-03-02T10:20:37;21.10;69.90
770;DHT22;368;48.698;9.116;2024-03-02T10:23:13;21.00;67.00
770;DHT22;368;48.698;9.116;2024-03-02T10:25:40;20.90;69.40
770;DHT22;368;48.698;9.116;2024-03-02T10:28:07;22.20;65.30
770;DHT22;368;48.698;9.116;2024-03-02T10:30:34;21.50;62.50
770;DHT22;368;48.698;9.116;2024-03-02T10:33:02;21.80;64.10
770;DHT22;368;48.698;9.116;2024-03-02T10:35:29;21.80;62.70
770;DHT22;368;48.698;9.116;2024-03-02T10:37:58;21.80;63.70
770;DHT22;368;48.698;9.116;2024-03-02T10:40:27;22.00;62.20
770;DHT22;368;48.698;9.116;2024-03-02T10:42:54;22.80;60.90
770;DHT22;368;48.698;9.116;2024-03-02T10:45:23;22.20;59.80
770;DHT22;368;48.698;9.116;2024-03-02T10:47:51;22.30;60.70
770;DHT22;368;48.698;9.116;2024-03-02T10:50:18;22.90;59.50
770;DHT22;368;48.698;9.116;2024-03-02T10:52:45;23.00;59.60
770;DHT22;368;48.698;9.116;2024-03-02T10:55:12;23.20;58.90
770;DHT22;368;48.698;9.116;2024-03-02T10:57:50;22.60;61.00
770;DHT22;368;48.698;9.116;2024-03-02T11:00:18;22.00;58.10
770;DHT22;368;48.698;9.116;2024-03-02T11:02:55;22.70;59.20
770;DHT22;368;48.698;9.116;2024-03-02T11:05:27;22.70;59.30
770;DHT22;368;48.698;9.116;2024-03-02T11:07:59;23.80;57.90
770;DHT22;368;48.698;9.116;2024-03-02T11:10:32;25.20;51.10
770;DHT22;368;48.698;9.116;2024-03-02T11:13:02;25.10;54.30
770;DHT22;368;48.698;9.116;2024-03-02T11:15:31;26.20;50.00
770;DHT22;368;48.698;9.116;2024-03-02T11:18:01;26.00;48.10
770;DHT22;368;48.698;9.116;2024-03-02T11:20:31;24.90;48.90
770;DHT22;368;48.698;9.116;2024-03-02T11:23:05;24.70;50.30
770;DHT22;368;48.698;9.116;2024-03-02T11:25:32;24.50;50.20
770;DHT22;368;48.698;9.116;2024-03-02T11:28:01;23.20;51.30
770;DHT22;368;48.698;9.116;2024-03-02T11:30:51;20.80;53.00
770;DHT22;368;48.698;9.116;2024-03-02T11:33:25;22.80;54.50
770;DHT22;368;48.698;9.116;2024-03-02T11:35:56;22.70;55.20
770;DHT22;368;48.698;9.116;2024-03-02T11:38:30;22.00;55.80
770;DHT22;368;48.698;9.116;2024-03-02T11:40:59;21.00;58.20
770;DHT22;368;48.698;9.116;2024-03-02T11:43:29;21.10;58.70
770;DHT22;368;48.698;9.116;2024-03-02T11:46:00;22.50;55.90
770;DHT22;368;48.698;9.116;2024-03-02T11:48:29;24.10;54.50
770;DHT22;368;48.698;9.116;2024-03-02T11:50:58;23.50;54.50
770;DHT22;368;48.698;9.116;2024-03-02T11:53:26;20.50;55.90
770;DHT22;368;48.698;9.116;2024-03-02T11:55:55;20.30;59.50
770;DHT22;368;48.698;9.116;2024-03-02T11:58:22;19.50;59.20
770;DHT22;368;48.698;9.116;2024-03-02T12:00:53;20.30;59.70
770;DHT22;368;48.698;9.116;2024-03-02T12:03:22;21.60;58.30
770;DHT22;368;48.698;9.116;2024-03-02T12:05:51;21.30;58.20
770;DHT22;368;48.698;9.116;2024-03-02T12:08:18;22.30;58.10
770;DHT22;368;48.698;9.116;2024-03-02T12:10:56;21.50;57.20
770;DHT22;368;48.698;9.116;2024-03-02T12:13:23;20.40;59.10
770;DHT22;368;48.698;9.116;2024-03-02T12:15:54;21.80;56.90
770;DHT22;368;48.698;9.116;2024-03-02T12:18:22;22.00;58.80
770;DHT22;368;48.698;9.116;2024-03-02T12:20:49;21.50;56.60
770;DHT22;368;48.698;9.116;2024-03-02T12:23:18;21.80;56.30
770;DHT22;368;48.698;9.116;2024-03-02T12:25:48;21.40;55.80
770;DHT22;368;48.698;9.116;2024-03-02T12:28:15;20.30;58.70
770;DHT22;368;48.698;9.116;2024-03-02T12:30:42;20.90;59.10
770;DHT22;368;48.698;9.116;2024-03-02T12:33:13;22.60;57.20
770;DHT22;368;48.698;9.116;2024-03-02T12:35:40;23.80;54.50
770;DHT22;368;48.698;9.116;2024-03-02T12:38:08;24.40;53.80
770;DHT22;368;48.698;9.116;2024-03-02T12:40:35;26.20;51.50
770;DHT22;368;48.698;9.116;2024-03-02T12:43:02;27.00;47.10
770;DHT22;368;48.698;9.116;2024-03-02T12:45:29;27.00;47.60
770;DHT22;368;48.698;9.116;2024-03-02T12:47:56;26.90;47.30
770;DHT22;368;48.698;9.116;2024-03-02T12:50:25;26.20;48.70
770;DHT22;368;48.698;9.116;2024-03-02T12:52:52;24.60;48.70
770;DHT22;368;48.698;9.116;2024-03-02T12:55:20;24.70;49.70
770;DHT22;368;48.698;9.116;2024-03-02T12:57:49;25.60;48.50
770;DHT22;368;48.698;9.116;2024-03-02T13:00:18;25.90;47.40
770;DHT22;368;48.698;9.116;2024-03-02T13:02:46;24.50;48.90
770;DHT22;368;48.698;9.116;2024-03-02T13:05:13;25.90;49.40
770;DHT22;368;48.698;9.116;2024-03-02T13:07:41;24.50;48.00
770;DHT22;368;48.698;9.116;2024-03-02T13:10:08;23.30;51.90
770;DHT22;368;48.698;9.116;2024-03-02T13:12:36;24.50;49.40
770;DHT22;368;48.698;9.116;2024-03-02T13:15:03;24.90;49.40
770;DHT22;368;48.698;9.116;2024-03-02T13:17:30;24.40;49.60
770;DHT22;368;48.698;9.116;2024-03-02T13:19:58;25.20;47.90
770;DHT22;368;48.698;9.116;2024-03-02T13:22:26;25.40;47.40
770;DHT22;368;48.698;9.116;2024-03-02T13:24:54;24.90;48.10
770;DHT22;368;48.698;9.116;2024-03-02T13:27:21;25.50;47.80
770;DHT22;368;48.698;9.116;2024-03-02T13:29:49;24.00;49.50
770;DHT22;368;48.698;9.116;2024-03-02T13:32:16;25.20;48.80
770;DHT22;368;48.698;9.116;2024-03-02T13:34:46;23.20;49.70
770;DHT22;368;48.698;9.116;2024-03-02T13:37:13;22.90;51.70
770;DHT22;368;48.698;9.116;2024-03-02T13:39:39;23.20;51.10
770;DHT22;368;48.698;9.116;2024-03-02T13:42:10;22.80;51.30
770;DHT22;368;48.698;9.116;2024-03-02T13:44:39;22.40;51.60
770;DHT22;368;48.698;9.116;2024-03-02T13:47:06;23.30;51.40
770;DHT22;368;48.698;9.116;2024-03-02T13:49:33;23.10;50.10
770;DHT22;368;48.698;9.116;2024-03-02T13:52:03;23.90;50.00
770;DHT22;368;48.698;9.116;2024-03-02T13:54:37;23.60;50.60
770;DHT22;368;48.698;9.116;2024-03-02T13:57:05;24.50;49.60
770;DHT22;368;48.698;9.116;2024-03-02T13:59:34;24.00;48.90
770;DHT22;368;48.698;9.116;2024-03-02T14:02:01;21.30;50.40
770;DHT22;368;48.698;9.116;2024-03-02T14:04:30;19.90;53.80
770;DHT22;368;48.698;9.116;2024-03-02T14:06:57;21.50;53.00
770;DHT22;368;48.698;9.116;2024-03-02T14:09:23;22.10;51.80
770;DHT22;368;48.698;9.116;2024-03-02T14:11:50;22.40;51.80
770;DHT22;368;48.698;9.116;2024-03-02T14:14:17;21.50;51.60
770;DHT22;368;48.698;9.116;2024-03-02T14:16:46;20.80;51.40
770;DHT22;368;48.698;9.116;2024-03-02T14:19:13;19.00;54.70
770;DHT22;368;48.698;9.116;2024-03-02T14:21:40;19.70;54.80
770;DHT22;368;48.698;9.116;2024-03-02T14:24:07;20.70;53.70
770;DHT22;368;48.698;9.116;2024-03-02T14:26:34;20.90;53.80
770;DHT22;368;48.698;9.116;2024-03-02T14:29:02;20.10;52.80
770;DHT22;368;48.698;9.116;2024-03-02T14:31:29;19.80;54.40
770;DHT22;368;48.698;9.116;2024-03-02T14:33:58;20.80;54.20
770;DHT22;368;48.698;9.116;2024-03-02T14:36:25;21.20;53.80
770;DHT22;368;48.698;9.116;2024-03-02T14:38:53;20.10;53.10
770;DHT22;368;48.698;9.116;2024-03-02T14:41:20;20.90;53.60
770;DHT22;368;48.698;9.116;2024-03-02T14:43:46;18.90;54.80
770;DHT22;368;48.698;9.116;2024-03-02T14:46:15;20.70;54.30
770;DHT22;368;48.698;9.116;2024-03-02T14:48:43;20.60;54.40
770;DHT22;368;48.698;9.116;2024-03-02T14:51:13;21.50;53.10
770;DHT22;368;48.698;9.116;2024-03-02T14:53:39;21.40;51.60
770;DHT22;368;48.698;9.116;2024-03-02T14:56:06;21.40;51.60
770;DHT22;368;48.698;9.116;2024-03-02T14:58:33;21.40;52.10
770;DHT22;368;48.698;9.116;2024-03-02T15:01:03;21.70;52.00
770;DHT22;368;48.698;9.116;2024-03-02T15:03:29;21.20;51.00
770;DHT22;368;48.698;9.116;2024-03-02T15:05:56;20.40;52.00
770;DHT22;368;48.698;9.116;2024-03-02T15:08:25;21.00;53.10
770;DHT22;368;48.698;9.116;2024-03-02T15:10:52;20.50;51.80
770;DHT22;368;48.698;9.116;2024-03-02T15:13:21;18.90;53.50
770;DHT22;368;48.698;9.116;2024-03-02T15:15:48;18.20;55.10
770;DHT22;368;48.698;9.116;2024-03-02T15:18:15;17.70;56.40
770;DHT22;368;48.698;9.116;2024-03-02T15:20:41;17.40;57.00
770;DHT22;368;48.698;9.116;2024-03-02T15:23:08;16.80;56.70
770;DHT22;368;48.698;9.116;2024-03-02T15:25:37;16.50;57.40
770;DHT22;368;48.698;9.116;2024-03-02T15:28:04;16.20;58.70
770;DHT22;368;48.698;9.116;2024-03-02T15:30:31;15.70;60.00
770;DHT22;368;48.698;9.116;2024-03-02T15:32:58;15.30;59.50
770;DHT22;368;48.698;9.116;2024-03-02T15:35:24;14.90;60.00
770;DHT22;368;48.698;9.116;2024-03-02T15:37:52;14.80;60.40
770;DHT22;368;48.698;9.116;2024-03-02T15:40:18;14.50;61.80
770;DHT22;368;48.698;9.116;2024-03-02T15:42:47;14.40;61.50
770;DHT22;368;48.698;9.116;2024-03-02T15:45:17;14.30;62.00
770;DHT22;368;48.698;9.116;2024-03-02T15:47:47;14.00;62.80
770;DHT22;368;48.698;9.116;2024-03-02T15:50:14;13.90;63.30
770;DHT22;368;48.698;9.116;2024-03-02T15:52:41;13.90;64.90
770;DHT22;368;48.698;9.116;2024-03-02T15:55:10;13.60;66.20
770;DHT22;368;48.698;9.116;2024-03-02T15:57:37;13.20;66.50
770;DHT22;368;48.698;9.116;2024-03-02T16:00:07;13.50;68.00
770;DHT22;368;48.698;9.116;2024-03-02T16:02:33;13.10;68.10
770;DHT22;368;48.698;9.116;2024-03-02T16:05:00;13.00;69.70
770;DHT22;368;48.698;9.116;2024-03-02T16:07:27;12.90;69.90
770;DHT22;368;48.698;9.116;2024-03-02T16:09:54;12.70;70.60
770;DHT22;368;48.698;9.116;2024-03-02T16:12:21;12.90;72.30
770;DHT22;368;48.698;9.116;2024-03-02T16:14:47;12.70;73.60
770;DHT22;368;48.698;9.116;2024-03-02T16:17:16;12.60;74.00
770;DHT22;368;48.698;9.116;2024-03-02T16:19:43;12.50;74.50
770;DHT22;368;48.698;9.116;2024-03-02T16:22:10;12.50;75.60
770;DHT22;368;48.698;9.116;2024-03-02T16:24:39;12.70;76.40
770;DHT22;368;48.698;9.116;2024-03-02T16:27:06;12.20;76.00
770;DHT22;368;48.698;9.116;2024-03-02T16:29:33;12.20;75.60
770;DHT22;368;48.698;9.116;2024-03-02T16:32:00;12.20;76.90
770;DHT22;368;48.698;9.116;2024-03-02T16:34:28;12.20;77.50
770;DHT22;368;48.698;9.116;2024-03-02T16:36:55;12.20;77.80
770;DHT22;368;48.698;9.116;2024-03-02T16:39:22;12.20;77.30
770;DHT22;368;48.698;9.116;2024-03-02T16:41:49;11.90;78.30
770;DHT22;368;48.698;9.116;2024-03-02T16:44:18;11.90;79.80
770;DHT22;368;48.698;9.116;2024-03-02T16:46:45;11.90;81.00
770;DHT22;368;48.698;9.116;2024-03-02T16:49:12;11.50;81.40